Time;durP1;ratioP1;P1;durP2;ratioP2;P2;SDS_P1;SDS_P2;PMS_P1;PMS_P2;Temp;Humidity;BMP_temperature;BMP_pressure;BME280_temperature;BME280_humidity;BME280_pressure;Samples;Min_cycle;Max_cycle;Signal;HPM_P1;HPM_P2
2023/12/03 00:01:06;;;;;;;36.77;25.13;;;;;;;-0.40;100.00;101737.09;5327473;28;20516;-80
2023/12/03 00:03:37;;;;;;;35.37;24.47;;;;;;;-0.39;100.00;101728.59;5309613;28;20034;-82
2023/12/03 00:06:08;;;;;;;38.57;25.30;;;;;;;-0.37;100.00;101738.13;5328145;28;20031;-82
2023/12/03 00:08:40;;;;;;;37.43;25.50;;;;;;;-0.36;100.00;101728.72;5327950;28;20040;-83
2023/12/03 00:11:11;;;;;;;38.53;26.03;;;;;;;-0.35;100.00;101733.06;5327581;28;20109;-83
2023/12/03 00:13:43;;;;;;;35.40;23.97;;;;;;;-0.35;100.00;101737.28;5327270;28;20043;-83
2023/12/03 00:16:14;;;;;;;37.43;26.60;;;;;;;-0.33;100.00;101721.19;5327587;28;20111;-82
2023/12/03 00:18:46;;;;;;;40.90;27.93;;;;;;;-0.30;100.00;101730.72;5327304;28;20578;-82
2023/12/03 00:21:17;;;;;;;39.83;25.47;;;;;;;-0.27;100.00;101739.41;5327143;28;20020;-81
2023/12/03 00:23:48;;;;;;;38.00;26.07;;;;;;;-0.26;100.00;101728.38;5327350;28;20032;-82
2023/12/03 00:26:20;;;;;;;40.10;25.13;;;;;;;-0.22;100.00;101737.06;5327636;28;20031;-79
2023/12/03 00:28:51;;;;;;;35.90;24.10;;;;;;;-0.24;100.00;101736.09;5327272;28;20036;-81
2023/12/03 00:31:23;;;;;;;32.73;24.03;;;;;;;-0.23;100.00;101736.19;5327272;28;20530;-83
2023/12/03 00:33:54;;;;;;;36.70;25.77;;;;;;;-0.21;100.00;101726.00;5327486;28;20034;-83
2023/12/03 00:36:25;;;;;;;31.97;23.13;;;;;;;-0.16;100.00;101737.38;5327666;28;20083;-83
2023/12/03 00:38:57;;;;;;;32.67;23.20;;;;;;;-0.09;100.00;101734.25;5327628;28;20028;-82
2023/12/03 00:41:28;;;;;;;35.00;24.33;;;;;;;-0.05;100.00;101740.41;5327394;28;20054;-82
2023/12/03 00:43:59;;;;;;;32.50;23.60;;;;;;;-0.08;100.00;101741.16;5326765;28;20073;-81
2023/12/03 00:46:31;;;;;;;30.07;22.93;;;;;;;-0.04;100.00;101743.03;5326256;28;20417;-82
2023/12/03 00:49:02;;;;;;;33.30;21.50;;;;;;;-0.04;100.00;101737.03;5326250;28;20115;-82
2023/12/03 00:51:33;;;;;;;34.37;24.03;;;;;;;-0.05;100.00;101741.31;5326472;28;20449;-80
2023/12/03 00:54:05;;;;;;;32.70;23.67;;;;;;;-0.09;100.00;101743.66;5326355;28;20131;-81
2023/12/03 00:56:36;;;;;;;33.07;23.20;;;;;;;-0.09;100.00;101739.41;5326968;28;20102;-82
2023/12/03 00:59:08;;;;;;;30.60;22.90;;;;;;;-0.05;100.00;101751.56;5326387;28;20103;-82
2023/12/03 01:01:39;;;;;;;38.20;26.63;;;;;;;-0.06;100.00;101747.22;5326126;28;20032;-82
2023/12/03 01:04:10;;;;;;;35.63;24.87;;;;;;;-0.07;100.00;101750.59;5326379;28;20123;-82
2023/12/03 01:06:43;;;;;;;34.83;25.40;;;;;;;-0.13;100.00;101737.50;5326044;28;20130;-82
2023/12/03 01:09:14;;;;;;;35.45;24.83;;;;;;;-0.12;100.00;101751.19;5326096;28;20034;-82
2023/12/03 01:11:46;;;;;;;31.00;23.37;;;;;;;-0.12;100.00;101758.88;5325763;28;20110;-81
2023/12/03 01:14:18;;;;;;;37.23;25.70;;;;;;;-0.13;100.00;101758.00;5326265;28;20356;-82
2023/12/03 01:16:49;;;;;;;34.63;24.63;;;;;;;-0.08;100.00;101766.78;5331751;28;20089;-83
2023/12/03 01:19:21;;;;;;;35.10;25.13;;;;;;;-0.13;100.00;101758.00;5330033;28;20090;-82
2023/12/03 01:21:52;;;;;;;34.37;24.10;;;;;;;-0.13;100.00;101763.13;5326072;28;20123;-82
2023/12/03 01:24:23;;;;;;;35.13;25.07;;;;;;;-0.14;100.00;101768.19;5325996;28;20032;-82
2023/12/03 01:26:55;;;;;;;34.23;24.97;;;;;;;-0.10;100.00;101770.94;5325912;28;20375;-82
2023/12/03 01:29:27;;;;;;;33.43;24.87;;;;;;;-0.06;100.00;101774.56;5326306;28;20035;-82
2023/12/03 01:31:58;;;;;;;34.27;24.40;;;;;;;-0.13;100.00;101770.84;5326453;28;20489;-82
2023/12/03 01:34:29;;;;;;;32.50;25.87;;;;;;;-0.08;100.00;101776.13;5325652;28;20047;-82
2023/12/03 01:37:01;;;;;;;34.00;23.53;;;;;;;-0.10;100.00;101776.06;5326308;28;20127;-83
2023/12/03 01:39:32;;;;;;;38.60;24.60;;;;;;;-0.10;100.00;101770.06;5325832;28;20031;-83
2023/12/03 01:42:04;;;;;;;33.90;23.53;;;;;;;-0.13;100.00;101777.63;5325812;28;20074;-82
2023/12/03 01:44:35;;;;;;;32.87;22.93;;;;;;;-0.14;100.00;101766.50;5307070;28;20038;-83
2023/12/03 01:47:07;;;;;;;30.83;22.53;;;;;;;-0.18;100.00;101769.72;5325357;28;20425;-82
2023/12/03 01:49:40;;;;;;;34.63;24.70;;;;;;;-0.22;100.00;101766.13;5325265;28;20075;-84
2023/12/03 01:52:13;;;;;;;36.42;23.60;;;;;;;-0.25;100.00;101768.53;5325127;28;20784;-82
2023/12/03 01:54:45;;;;;;;32.28;23.27;;;;;;;-0.33;100.00;101775.00;5325103;28;20032;-82
2023/12/03 01:57:16;;;;;;;36.92;23.92;;;;;;;-0.42;100.00;101778.00;5325004;28;20050;-82
2023/12/03 01:59:47;;;;;;;34.30;24.60;;;;;;;-0.45;100.00;101777.88;5325521;28;20032;-83
2023/12/03 02:02:19;;;;;;;39.13;25.77;;;;;;;-0.49;100.00;101772.50;5325285;28;20034;-80
2023/12/03 02:04:50;;;;;;;40.50;26.53;;;;;;;-0.57;100.00;101778.13;5325588;28;20066;-81
2023/12/03 02:07:21;;;;;;;40.87;26.37;;;;;;;-0.58;100.00;101784.06;5325039;28;20080;-82
2023/12/03 02:09:53;;;;;;;40.07;27.90;;;;;;;-0.61;100.00;101777.91;5325095;28;20031;-82
2023/12/03 02:12:25;;;;;;;39.63;28.00;;;;;;;-0.54;100.00;101784.22;5324867;28;20047;-82
2023/12/03 02:14:57;;;;;;;42.88;29.70;;;;;;;-0.48;100.00;101790.53;5324653;28;20028;-81
2023/12/03 02:17:28;;;;;;;42.03;29.53;;;;;;;-0.43;100.00;101783.06;5324885;28;20058;-82
2023/12/03 02:20:00;;;;;;;40.57;29.53;;;;;;;-0.42;100.00;101777.13;5325339;28;20055;-82
2023/12/03 02:22:31;;;;;;;42.67;29.10;;;;;;;-0.38;100.00;101776.47;5326201;28;20522;-82
2023/12/03 02:25:03;;;;;;;38.33;28.00;;;;;;;-0.32;100.00;101791.25;5331443;28;20039;-80
2023/12/03 02:27:34;;;;;;;38.30;26.13;;;;;;;-0.29;100.00;101794.84;5312838;28;20063;-83
2023/12/03 02:30:06;;;;;;;35.50;25.13;;;;;;;-0.25;100.00;101786.47;5325472;28;20420;-81
2023/12/03 02:32:38;;;;;;;36.70;25.38;;;;;;;-0.26;100.00;101792.44;5325004;28;20043;-82
2023/12/03 02:35:09;;;;;;;36.20;25.53;;;;;;;-0.25;100.00;101789.06;5325768;28;20447;-81
2023/12/03 02:37:40;;;;;;;38.00;24.80;;;;;;;-0.24;100.00;101788.25;5327116;28;20164;-81
2023/12/03 02:40:12;;;;;;;38.87;24.60;;;;;;;-0.17;100.00;101786.00;5330122;28;20032;-82
2023/12/03 02:42:43;;;;;;;34.00;22.73;;;;;;;-0.16;100.00;101792.84;5325603;28;20036;-80
2023/12/03 02:45:14;;;;;;;34.33;23.53;;;;;;;-0.14;100.00;101787.00;5307525;28;20051;-82
2023/12/03 02:47:46;;;;;;;36.63;24.07;;;;;;;-0.13;100.00;101785.31;5325334;28;20042;-80
2023/12/03 02:50:17;;;;;;;33.63;23.00;;;;;;;-0.13;100.00;101790.44;5325184;28;20024;-81
2023/12/03 02:52:48;;;;;;;34.73;22.47;;;;;;;-0.09;100.00;101792.34;5326064;28;20132;-81
2023/12/03 02:55:20;;;;;;;33.37;23.30;;;;;;;-0.10;100.00;101798.28;5326109;28;20028;-81
2023/12/03 02:57:51;;;;;;;35.03;22.97;;;;;;;-0.12;100.00;101795.63;5329159;28;20089;-79
2023/12/03 03:00:22;;;;;;;32.13;23.23;;;;;;;-0.12;100.00;101797.31;5329140;28;20085;-81
2023/12/03 03:02:54;;;;;;;35.43;23.43;;;;;;;-0.17;100.00;101791.97;5310464;28;20062;-80
2023/12/03 03:05:25;;;;;;;38.13;23.73;;;;;;;-0.24;100.00;101792.47;5328696;28;20433;-80
2023/12/03 03:07:57;;;;;;;37.40;24.70;;;;;;;-0.31;100.00;101787.88;5329254;28;20045;-80
2023/12/03 03:10:28;;;;;;;34.43;22.50;;;;;;;-0.35;100.00;101788.53;5310285;28;20044;-81
2023/12/03 03:13:00;;;;;;;38.20;25.33;;;;;;;-0.46;100.00;101794.03;5328853;28;20583;-78
2023/12/03 03:15:32;;;;;;;35.30;24.50;;;;;;;-0.49;100.00;101788.75;5328269;28;20035;-75
2023/12/03 03:18:03;;;;;;;35.27;24.70;;;;;;;-0.57;100.00;101790.94;5328986;28;20046;-79
2023/12/03 03:20:35;;;;;;;32.83;23.40;;;;;;;-0.64;100.00;101783.78;5328606;28;20035;-80
2023/12/03 03:23:06;;;;;;;36.30;25.27;;;;;;;-0.63;100.00;101787.19;5328558;28;20153;-81
2023/12/03 03:25:37;;;;;;;38.03;25.17;;;;;;;-0.70;100.00;101787.72;5328647;28;20529;-80
2023/12/03 03:28:09;;;;;;;38.33;25.13;;;;;;;-0.81;100.00;101790.59;5328493;28;20035;-80
2023/12/03 03:30:40;;;;;;;37.53;24.10;;;;;;;-0.86;100.00;101789.50;5328689;28;20042;-80
2023/12/03 03:33:11;;;;;;;39.60;26.13;;;;;;;-0.90;100.00;101789.28;5328771;28;20035;-80
2023/12/03 03:35:43;;;;;;;42.10;25.20;;;;;;;-0.94;100.00;101794.22;5334510;28;20040;-80
2023/12/03 03:38:14;;;;;;;43.17;26.20;;;;;;;-0.92;100.00;101787.53;5345817;28;20047;-79
2023/12/03 03:40:45;;;;;;;36.40;25.27;;;;;;;-0.93;100.00;101787.47;5348367;28;20031;-80
2023/12/03 03:43:17;;;;;;;39.80;25.27;;;;;;;-0.98;100.00;101796.59;5329601;28;20027;-80
2023/12/03 03:45:49;;;;;;;36.27;24.87;;;;;;;-0.99;100.00;101797.38;5349811;28;20027;-81
2023/12/03 03:48:20;;;;;;;39.30;25.50;;;;;;;-0.99;100.00;101794.81;5333239;28;20084;-81
2023/12/03 03:50:51;;;;;;;41.27;27.53;;;;;;;-1.06;100.00;101792.72;5328234;28;20032;-80
2023/12/03 03:53:23;;;;;;;39.20;25.87;;;;;;;-1.13;100.00;101807.81;5327622;28;20031;-81
2023/12/03 03:55:54;;;;;;;37.37;24.67;;;;;;;-1.22;100.00;101798.75;5327998;28;20027;-81
2023/12/03 03:58:25;;;;;;;42.10;25.63;;;;;;;-1.30;100.00;101804.34;5327872;28;20039;-81
2023/12/03 04:00:57;;;;;;;41.73;25.80;;;;;;;-1.37;100.00;101802.28;5327739;28;20027;-81
2023/12/03 04:03:28;;;;;;;44.27;25.73;;;;;;;-1.38;100.00;101799.66;5327683;28;20071;-81
2023/12/03 04:06:00;;;;;;;38.93;25.60;;;;;;;-1.40;100.00;101802.13;5327196;28;20039;-81
2023/12/03 04:08:32;;;;;;;43.33;25.65;;;;;;;-1.49;100.00;101804.19;5327410;28;20414;-81
2023/12/03 04:11:04;;;;;;;38.55;25.23;;;;;;;-1.54;100.00;101795.41;5309180;28;20035;-80
2023/12/03 04:13:36;;;;;;;39.53;26.77;;;;;;;-1.58;100.00;101799.47;5327710;28;20482;-81
2023/12/03 04:16:08;;;;;;;43.60;28.30;;;;;;;-1.60;100.00;101798.50;5327175;28;20027;-81
2023/12/03 04:18:39;;;;;;;45.83;28.03;;;;;;;-1.63;100.00;101803.47;5327716;28;20027;-81
2023/12/03 04:21:15;;;;;;;41.87;25.30;;;;;;;-1.69;100.00;101808.25;5308974;28;20036;-83
2023/12/03 04:23:46;;;;;;;44.42;27.48;;;;;;;-1.68;100.00;101817.69;5327252;28;20019;-80
2023/12/03 04:26:18;;;;;;;39.67;25.50;;;;;;;-1.70;100.00;101815.03;5327530;28;20050;-81
2023/12/03 04:28:49;;;;;;;44.13;26.47;;;;;;;-1.76;100.00;101812.16;5326822;28;20122;-81
2023/12/03 04:31:23;;;;;;;42.57;26.37;;;;;;;-1.76;100.00;101821.50;5326890;28;20067;-81
2023/12/03 04:33:56;;;;;;;38.85;25.83;;;;;;;-1.88;100.00;101814.94;5327764;28;20359;-82
2023/12/03 04:36:27;;;;;;;51.45;28.45;;;;;;;-1.93;100.00;101816.38;5326667;28;20040;-82
2023/12/03 04:38:59;;;;;;;44.77;28.60;;;;;;;-1.88;100.00;101822.59;5327377;28;20027;-80
2023/12/03 04:41:34;;;;;;;45.63;27.57;;;;;;;-1.96;100.00;101815.31;5326837;28;20065;-79
2023/12/03 04:44:06;;;;;;;46.50;28.92;;;;;;;-1.98;100.00;101822.00;5326759;28;20036;-81
2023/12/03 04:46:43;;;;;;;45.87;28.43;;;;;;;-2.02;100.00;101819.28;5327098;28;20082;-81
2023/12/03 04:49:14;;;;;;;49.72;28.45;;;;;;;-2.07;100.00;101827.50;5326495;28;20099;-81
2023/12/03 04:51:46;;;;;;;46.37;27.50;;;;;;;-2.09;100.00;101817.19;5326930;28;20131;-82
2023/12/03 04:54:17;;;;;;;45.73;27.67;;;;;;;-2.11;100.00;101825.56;5327232;28;20028;-81
2023/12/03 04:56:48;;;;;;;50.80;28.70;;;;;;;-2.17;100.00;101833.78;5326617;28;20039;-84
2023/12/03 04:59:20;;;;;;;48.17;29.03;;;;;;;-2.20;100.00;101828.50;5326639;28;20360;-84
2023/12/03 05:01:51;;;;;;;55.30;32.33;;;;;;;-2.24;100.00;101824.91;5326831;28;20459;-84
2023/12/03 05:04:25;;;;;;;49.87;31.30;;;;;;;-2.29;100.00;101826.28;5308673;28;20027;-84
2023/12/03 05:06:56;;;;;;;53.97;29.73;;;;;;;-2.31;100.00;101829.56;5326480;28;20042;-83
2023/12/03 05:09:28;;;;;;;49.03;29.07;;;;;;;-2.38;100.00;101828.34;5326628;28;20027;-84
2023/12/03 05:11:59;;;;;;;52.10;30.03;;;;;;;-2.41;100.00;101828.16;5326245;28;20069;-82
2023/12/03 05:14:32;;;;;;;55.03;30.20;;;;;;;-2.43;100.00;101835.75;5326332;28;20035;-83
2023/12/03 05:17:03;;;;;;;58.30;32.80;;;;;;;-2.43;100.00;101839.94;5326761;28;20050;-83
2023/12/03 05:19:35;;;;;;;60.23;34.87;;;;;;;-2.48;100.00;101832.06;5325555;28;20028;-83
2023/12/03 05:22:06;;;;;;;60.83;33.47;;;;;;;-2.49;100.00;101837.06;5326280;28;20064;-82
2023/12/03 05:24:37;;;;;;;61.63;35.37;;;;;;;-2.53;100.00;101835.97;5326183;28;20035;-82
2023/12/03 05:27:09;;;;;;;59.47;34.83;;;;;;;-2.55;100.00;101839.25;5326122;28;20098;-81
2023/12/03 05:29:43;;;;;;;63.60;36.40;;;;;;;-2.60;100.00;101847.53;5326401;28;20028;-81
2023/12/03 05:32:14;;;;;;;64.95;35.65;;;;;;;-2.63;100.00;101842.22;5326208;28;20031;-81
2023/12/03 05:34:46;;;;;;;68.20;36.40;;;;;;;-2.67;100.00;101835.22;5326370;28;20347;-78
2023/12/03 05:37:17;;;;;;;62.83;34.70;;;;;;;-2.66;100.00;101836.09;5325822;28;20055;-82
2023/12/03 05:39:49;;;;;;;67.53;35.27;;;;;;;-2.71;100.00;101838.38;5325746;28;20035;-81
2023/12/03 05:42:23;;;;;;;62.57;34.47;;;;;;;-2.69;100.00;101841.88;5307525;28;20107;-81
2023/12/03 05:44:55;;;;;;;60.40;33.67;;;;;;;-2.72;100.00;101838.28;5325845;28;20030;-79
2023/12/03 05:47:26;;;;;;;65.90;33.27;;;;;;;-2.71;100.00;101837.50;5329082;28;20118;-79
2023/12/03 05:50:00;;;;;;;62.47;33.37;;;;;;;-2.73;100.00;101839.94;5329408;28;20122;-82
2023/12/03 05:52:31;;;;;;;63.33;32.47;;;;;;;-2.75;100.00;101844.09;5326104;28;20067;-81
2023/12/03 05:55:03;;;;;;;61.03;32.13;;;;;;;-2.77;100.00;101844.00;5326599;28;20078;-81
2023/12/03 05:57:34;;;;;;;58.45;31.95;;;;;;;-2.77;100.00;101841.44;5326068;28;20040;-82
2023/12/03 06:00:06;;;;;;;55.90;30.57;;;;;;;-2.78;100.00;101843.91;5325647;28;20050;-81
2023/12/03 06:02:38;;;;;;;61.83;32.83;;;;;;;-2.77;100.00;101848.22;5325491;28;20030;-81
2023/12/03 06:05:09;;;;;;;56.20;31.73;;;;;;;-2.79;100.00;101844.69;5326117;28;20035;-81
2023/12/03 06:07:40;;;;;;;59.53;32.70;;;;;;;-2.82;100.00;101849.63;5325152;28;20130;-81
2023/12/03 06:10:12;;;;;;;55.90;31.17;;;;;;;-2.87;100.00;101851.88;5325129;28;20061;-81
2023/12/03 06:12:43;;;;;;;57.83;31.27;;;;;;;-2.88;100.00;101859.44;5324935;28;20066;-82
2023/12/03 06:15:14;;;;;;;61.50;31.20;;;;;;;-2.87;100.00;101862.09;5325163;28;20463;-82
2023/12/03 06:17:46;;;;;;;61.30;32.03;;;;;;;-2.88;100.00;101854.34;5324862;28;20080;-82
2023/12/03 06:20:17;;;;;;;57.27;29.67;;;;;;;-2.93;100.00;101861.72;5324998;28;20552;-83
2023/12/03 06:22:48;;;;;;;55.20;30.27;;;;;;;-2.91;100.00;101866.94;5324803;28;20065;-82
2023/12/03 06:25:20;;;;;;;59.37;30.40;;;;;;;-2.92;100.00;101868.59;5325121;28;20036;-83
2023/12/03 06:27:51;;;;;;;56.63;30.00;;;;;;;-2.92;100.00;101868.59;5325087;28;20054;-82
2023/12/03 06:30:23;;;;;;;63.13;31.17;;;;;;;-2.89;100.00;101870.47;5324644;28;20439;-83
2023/12/03 06:32:55;;;;;;;59.20;31.63;;;;;;;-2.79;100.00;101865.09;5324942;28;20063;-83
2023/12/03 06:35:26;;;;;;;53.55;29.25;;;;;;;-2.75;100.00;101862.84;5324978;28;20030;-82
2023/12/03 06:37:57;;;;;;;59.07;31.50;;;;;;;-2.71;100.00;101858.78;5325487;28;20497;-83
2023/12/03 06:40:29;;;;;;;53.93;28.53;;;;;;;-2.72;100.00;101863.78;5325045;28;20421;-83
2023/12/03 06:43:00;;;;;;;54.03;29.30;;;;;;;-2.76;100.00;101853.41;5325169;28;20468;-82
2023/12/03 06:45:32;;;;;;;56.23;29.40;;;;;;;-2.77;100.00;101854.22;5325043;28;20116;-83
2023/12/03 06:48:04;;;;;;;53.57;28.73;;;;;;;-2.80;100.00;101863.34;5324629;28;20043;-82
2023/12/03 06:50:35;;;;;;;55.20;30.65;;;;;;;-2.84;100.00;101852.06;5324744;28;20115;-83
2023/12/03 06:53:07;;;;;;;49.23;28.00;;;;;;;-2.82;100.00;101849.63;5324726;28;20122;-83
2023/12/03 06:55:38;;;;;;;55.83;29.03;;;;;;;-2.87;100.00;101853.56;5325149;28;20028;-83
2023/12/03 06:58:09;;;;;;;50.40;27.70;;;;;;;-2.87;100.00;101851.88;5327929;28;20032;-83
2023/12/03 07:00:40;;;;;;;50.27;30.07;;;;;;;-2.89;100.00;101852.63;5338790;28;20059;-82
2023/12/03 07:03:12;;;;;;;57.33;29.93;;;;;;;-2.91;100.00;101847.41;5335833;28;20042;-85
2023/12/03 07:05:43;;;;;;;53.27;28.43;;;;;;;-2.95;100.00;101843.81;5325504;28;20132;-83
2023/12/03 07:08:15;;;;;;;48.53;28.83;;;;;;;-2.97;100.00;101847.06;5324476;28;20034;-83
2023/12/03 07:10:46;;;;;;;52.90;29.93;;;;;;;-3.00;100.00;101849.41;5324631;28;20023;-83
2023/12/03 07:13:17;;;;;;;52.17;28.70;;;;;;;-3.04;100.00;101857.66;5324831;28;20163;-83
2023/12/03 07:15:49;;;;;;;50.63;29.03;;;;;;;-3.03;100.00;101855.19;5324417;28;20039;-83
2023/12/03 07:18:21;;;;;;;53.23;29.07;;;;;;;-2.98;100.00;101858.03;5324364;28;20027;-83
2023/12/03 07:20:52;;;;;;;52.72;29.30;;;;;;;-2.99;100.00;101856.28;5307155;28;20438;-83
2023/12/03 07:23:23;;;;;;;57.53;28.20;;;;;;;-3.00;100.00;101865.59;5324767;28;20034;-85
2023/12/03 07:25:55;;;;;;;51.33;28.80;;;;;;;-2.98;100.00;101873.34;5325311;28;20031;-83
2023/12/03 07:28:26;;;;;;;50.27;27.83;;;;;;;-3.00;100.00;101863.03;5306460;28;20111;-84
2023/12/03 07:30:57;;;;;;;49.87;27.50;;;;;;;-2.99;100.00;101864.81;5306642;28;20032;-84
2023/12/03 07:33:29;;;;;;;49.90;28.37;;;;;;;-2.95;100.00;101870.97;5325016;28;20031;-83
2023/12/03 07:36:01;;;;;;;51.37;27.33;;;;;;;-2.95;100.00;101874.44;5306271;28;20377;-83
2023/12/03 07:38:32;;;;;;;54.28;28.77;;;;;;;-2.91;100.00;101877.13;5324396;28;20116;-83
2023/12/03 07:41:09;;;;;;;54.20;28.50;;;;;;;-2.91;100.00;101875.47;5307027;28;20063;-83
2023/12/03 07:43:41;;;;;;;51.42;27.67;;;;;;;-2.88;100.00;101879.88;5329038;28;20180;-83
2023/12/03 07:46:21;;;;;;;49.77;28.33;;;;;;;-2.85;100.00;101877.50;5328338;28;20176;-83
2023/12/03 07:48:52;;;;;;;46.75;26.65;;;;;;;-2.85;100.00;101882.59;5327747;28;20032;-82
2023/12/03 07:51:23;;;;;;;43.03;26.90;;;;;;;-2.86;100.00;101879.19;5328142;28;20054;-83
2023/12/03 07:53:55;;;;;;;44.73;25.77;;;;;;;-2.84;100.00;101877.59;5328723;28;20080;-82
2023/12/03 07:56:36;;;;;;;46.13;25.90;;;;;;;-2.83;100.00;101873.38;5328414;28;20053;-82
2023/12/03 07:59:08;;;;;;;47.08;27.70;;;;;;;-2.83;100.00;101873.38;5328177;28;20055;-82
2023/12/03 08:01:40;;;;;;;45.65;27.90;;;;;;;-2.82;100.00;101877.69;5332050;28;20120;-82
2023/12/03 08:04:11;;;;;;;43.90;26.10;;;;;;;-2.80;100.00;101873.53;5335701;28;20046;-78
2023/12/03 08:06:42;;;;;;;50.67;28.07;;;;;;;-2.77;100.00;101877.19;5335929;28;20029;-82
2023/12/03 08:09:14;;;;;;;47.10;28.00;;;;;;;-2.75;100.00;101879.81;5318264;28;20470;-82
2023/12/03 08:11:45;;;;;;;49.80;26.40;;;;;;;-2.69;100.00;101889.50;5333685;28;20028;-82
2023/12/03 08:14:17;;;;;;;47.60;26.13;;;;;;;-2.68;100.00;101892.13;5331194;28;20028;-80
2023/12/03 08:16:48;;;;;;;43.73;24.63;;;;;;;-2.62;100.00;101894.19;5329383;28;20027;-81
2023/12/03 08:19:19;;;;;;;42.00;24.40;;;;;;;-2.58;100.00;101891.91;5328570;28;20063;-82
2023/12/03 08:21:51;;;;;;;42.90;24.37;;;;;;;-2.48;100.00;101894.97;5292458;28;20062;-81
2023/12/03 08:24:22;;;;;;;44.40;25.00;;;;;;;-2.45;100.00;101898.59;5309181;28;20387;-83
2023/12/03 08:26:53;;;;;;;40.87;23.77;;;;;;;-2.39;100.00;101903.19;5327317;28;20119;-83
2023/12/03 08:29:25;;;;;;;37.73;23.30;;;;;;;-2.32;100.00;101900.16;5326908;28;20028;-83
2023/12/03 08:31:56;;;;;;;42.57;24.33;;;;;;;-2.25;100.00;101904.84;5327380;28;20042;-82
2023/12/03 08:34:28;;;;;;;42.90;23.63;;;;;;;-2.15;100.00;101902.84;5327350;28;20071;-83
2023/12/03 08:37:00;;;;;;;34.17;22.95;;;;;;;-2.05;100.00;101910.22;5327234;28;20440;-82
2023/12/03 08:39:32;;;;;;;37.40;23.60;;;;;;;-1.88;100.00;101912.03;5326638;28;20048;-82
2023/12/03 08:42:04;;;;;;;39.03;24.60;;;;;;;-1.68;100.00;101919.94;5327311;28;20105;-82
2023/12/03 08:44:36;;;;;;;33.75;22.67;;;;;;;-1.50;100.00;101923.53;5327329;28;20031;-81
2023/12/03 08:47:08;;;;;;;37.20;21.93;;;;;;;-1.29;100.00;101918.69;5308594;28;20046;-81
2023/12/03 08:49:40;;;;;;;40.47;23.95;;;;;;;-1.06;100.00;101916.47;5326480;28;20050;-77
2023/12/03 08:52:12;;;;;;;34.67;22.50;;;;;;;-0.83;100.00;101924.47;5326899;28;20047;-82
2023/12/03 08:54:43;;;;;;;33.70;21.25;;;;;;;-0.72;100.00;101918.22;5326575;28;20028;-84
2023/12/03 08:57:15;;;;;;;34.17;20.97;;;;;;;-0.52;100.00;101921.78;5326390;28;20027;-83
2023/12/03 08:59:47;;;;;;;31.00;19.53;;;;;;;-0.33;100.00;101928.72;5326711;28;20035;-84
2023/12/03 09:02:19;;;;;;;28.85;19.10;;;;;;;-0.36;100.00;101936.25;5326703;28;20027;-81
2023/12/03 09:04:51;;;;;;;29.25;19.60;;;;;;;-0.48;100.00;101923.72;5326598;28;20036;-80
2023/12/03 09:07:24;;;;;;;27.43;20.00;;;;;;;-0.74;100.00;101933.50;5326472;28;20446;-83
2023/12/03 09:09:55;;;;;;;30.65;19.55;;;;;;;-0.82;100.00;101931.34;5326496;28;20057;-83
2023/12/03 09:12:26;;;;;;;28.50;20.20;;;;;;;-0.93;100.00;101929.09;5326658;28;20064;-82
2023/12/03 09:14:58;;;;;;;29.37;18.73;;;;;;;-0.98;100.00;101927.13;5307873;28;20416;-81
2023/12/03 09:17:29;;;;;;;30.77;20.20;;;;;;;-1.02;100.00;101937.97;5325984;28;20027;-82
2023/12/03 09:20:01;;;;;;;31.23;19.27;;;;;;;-1.08;100.00;101937.66;5325852;28;20028;-82
2023/12/03 09:22:33;;;;;;;29.63;19.80;;;;;;;-1.10;100.00;101941.00;5325803;28;20088;-78
2023/12/03 09:25:05;;;;;;;28.80;19.00;;;;;;;-1.01;100.00;101939.75;5325714;28;20031;-80
2023/12/03 09:27:37;;;;;;;31.52;19.75;;;;;;;-1.02;100.00;101951.66;5325504;28;20030;-80
2023/12/03 09:30:10;;;;;;;28.97;18.43;;;;;;;-0.94;100.00;101941.81;5325822;28;20031;-80
2023/12/03 09:32:41;;;;;;;29.60;18.27;;;;;;;-0.96;100.00;101931.50;5325703;28;20070;-80
2023/12/03 09:35:13;;;;;;;29.47;18.63;;;;;;;-0.92;100.00;101935.09;5325850;28;20032;-80
2023/12/03 09:37:44;;;;;;;29.50;18.87;;;;;;;-0.89;100.00;101922.47;5326041;28;20082;-81
2023/12/03 09:40:16;;;;;;;26.10;17.93;;;;;;;-0.81;100.00;101927.97;5326071;28;20043;-81
2023/12/03 09:42:48;;;;;;;28.90;18.90;;;;;;;-0.75;100.00;101929.19;5326137;28;20123;-81
2023/12/03 09:45:26;;;;;;;29.67;18.52;;;;;;;-0.67;100.00;101927.00;5326173;28;20100;-81
2023/12/03 09:48:01;;;;;;;26.23;18.02;;;;;;;-0.66;100.00;101933.91;5326143;28;20024;-81
2023/12/03 09:50:34;;;;;;;31.45;18.80;;;;;;;-0.58;100.00;101924.94;5325570;28;20036;-80
2023/12/03 09:53:09;;;;;;;26.20;18.13;;;;;;;-0.49;100.00;101927.06;5326399;28;20096;-77
2023/12/03 09:55:42;;;;;;;25.48;17.42;;;;;;;-0.45;98.53;101926.44;5327436;28;20499;-79
2023/12/03 09:58:15;;;;;;;29.05;16.90;;;;;;;-0.34;98.93;101938.91;5326932;28;20139;-80
2023/12/03 10:00:48;;;;;;;27.60;19.70;;;;;;;-0.31;97.90;101932.22;5327396;28;20089;-80
2023/12/03 10:03:19;;;;;;;29.48;19.73;;;;;;;-0.30;97.01;101928.88;5326874;28;20073;-82
2023/12/03 10:05:51;;;;;;;27.37;18.13;;;;;;;-0.27;97.32;101920.47;5326585;28;20040;-79
2023/12/03 10:08:22;;;;;;;28.80;17.70;;;;;;;-0.17;97.38;101920.13;5333030;28;20043;-81
2023/12/03 10:11:05;;;;;;;25.13;17.33;;;;;;;-0.15;96.44;101913.38;5342580;28;20035;-79
2023/12/03 10:13:37;;;;;;;24.30;17.00;;;;;;;-0.24;95.58;101915.47;5348169;28;20054;-79
2023/12/03 10:16:13;;;;;;;25.67;17.30;;;;;;;-0.21;95.54;101913.97;5347950;28;20035;-78
2023/12/03 10:18:45;;;;;;;26.25;16.88;;;;;;;-0.19;95.49;101916.59;5330454;28;20036;-79
2023/12/03 10:21:16;;;;;;;26.40;17.67;;;;;;;-0.16;95.73;101906.50;5346724;28;20093;-80
2023/12/03 10:24:08;;;;;;;31.27;19.27;;;;;;;-0.12;94.34;101920.34;5346302;28;20023;-79
2023/12/03 10:26:49;;;;;;;25.45;16.58;;;;;;;-0.12;94.04;101905.84;5326664;28;20044;-79
2023/12/03 10:29:23;;;;;;;25.00;17.67;;;;;;;-0.07;93.41;101909.50;5326581;28;20072;-81
2023/12/03 10:31:56;;;;;;;24.13;16.63;;;;;;;0.06;93.78;101910.09;5326994;28;20463;-80
2023/12/03 10:34:27;;;;;;;26.88;17.63;;;;;;;0.15;92.71;101903.72;5326281;28;20032;-80
2023/12/03 10:37:00;;;;;;;26.17;16.53;;;;;;;0.24;92.35;101897.28;5326092;28;20403;-80
2023/12/03 10:39:32;;;;;;;28.67;19.13;;;;;;;0.35;91.69;101897.00;5325489;28;20019;-73
2023/12/03 10:42:04;;;;;;;26.47;17.93;;;;;;;0.47;89.88;101894.09;5325116;28;20172;-80
2023/12/03 10:44:38;;;;;;;26.10;17.13;;;;;;;0.65;89.85;101885.50;5307142;28;20059;-81
2023/12/03 10:47:12;;;;;;;23.35;16.10;;;;;;;0.77;87.98;101880.03;5326071;28;20043;-80
2023/12/03 10:49:45;;;;;;;21.70;14.52;;;;;;;0.93;87.12;101885.03;5325589;28;20027;-80
2023/12/03 10:52:17;;;;;;;22.90;15.80;;;;;;;1.07;86.43;101875.38;5324699;28;20062;-80
2023/12/03 10:54:49;;;;;;;22.20;16.48;;;;;;;1.23;84.19;101888.06;5324687;28;20039;-82
2023/12/03 10:57:22;;;;;;;23.17;15.30;;;;;;;1.51;82.63;101890.94;5324715;28;20023;-80
2023/12/03 11:00:05;;;;;;;21.17;14.13;;;;;;;2.02;80.60;101882.75;5324794;28;20023;-80
2023/12/03 11:02:45;;;;;;;21.27;14.27;;;;;;;2.62;77.85;101875.59;5324447;28;20049;-80
2023/12/03 11:05:38;;;;;;;19.30;14.65;;;;;;;2.94;73.81;101878.50;5324508;28;20027;-80
2023/12/03 11:08:10;;;;;;;;;;;;;;;3.12;73.07;101864.53;5325069;28;20031;-77
2023/12/03 11:10:41;;;;;;;31.25;22.17;;;;;;;3.19;71.86;101869.03;5323732;28;19916;-80
2023/12/03 11:13:14;;;;;;;22.57;17.00;;;;;;;3.30;70.77;101857.44;5324771;28;20096;-81
2023/12/03 11:15:47;;;;;;;22.33;13.70;;;;;;;3.51;69.64;101851.22;5306779;28;20063;-79
2023/12/03 11:18:22;;;;;;;21.45;14.68;;;;;;;3.63;67.16;101859.38;5328543;28;20347;-79
2023/12/03 11:21:03;;;;;;;19.60;14.18;;;;;;;4.14;66.83;101840.38;5328866;28;20108;-80
2023/12/03 11:24:03;;;;;;;20.30;15.32;;;;;;;4.67;65.90;101835.91;5328265;28;20058;-80
2023/12/03 11:26:34;;;;;;;17.45;13.38;;;;;;;4.83;62.11;101839.78;5328523;28;20042;-79